MEY weather

Meghauli Airport
Meghauli, Narayani, Nepal

Public forecast

Using degrees Celsius for public forecast. Weather courtesy of forecast.io.

METAR (pilot weather report)

Closest report is Tribhuvan International Airport, 60.5 nm (112.1 km) E. Retrieved 2019/09/19 05:20 UTC (35 minutes ago):

VNKT 190520Z VRB02KT 6000 FEW008 SCT030 BKN100 21/19 Q1022 NOSIG

TAF (pilot weather forecast)

Forecast is more than 6 hours old.

Closest forecast is Tribhuvan International Airport, 60.5 nm (112.1 km) E. Retrieved 2019/09/18 18:42 UTC (11 hours ago):

TAF VNKT 181700Z 1818/1918 12003KT 5000 -RA FEW010 SCT025 OVC100 BECMG 1900/1902 00000KT 6000 FEW010 SCT025 BKN100 BECMG 1904/1905 15004KT 7000 FEW015 SCT025 BKN100 BECMG 1907/1908 23007KT 8000 FEW015 SCT030 BKN100 PROB40 1908/1912 24008KT 5000 -TSRA FEW025CB SCT030 BKN100 BECMG 1914/1915 VRB02KT 6000 FEW015 SCT025 BKN100